Time;durP1;ratioP1;P1;durP2;ratioP2;P2;SDS_P1;SDS_P2;PMS_P1;PMS_P2;Temp;Humidity;BMP_temperature;BMP_pressure;BME280_temperature;BME280_humidity;BME280_pressure;Samples;Min_cycle;Max_cycle;Signal;HPM_P1;HPM_P2
2022/09/04 00:01:43;;;;;;;2.50;1.70;;;;;;;;;;5091958;28;20203;-46
2022/09/04 00:04:14;;;;;;;2.20;2.00;;;;;;;;;;5091870;28;20231;-47
2022/09/04 00:06:42;;;;;;;3.50;1.70;;;;;;;;;;5091101;28;20226;-47
2022/09/04 00:09:14;;;;;;;3.30;1.70;;;;;;;;;;5090680;28;20238;-47
2022/09/04 00:11:44;;;;;;;2.17;1.83;;;;;;;;;;5091682;28;20670;-47
2022/09/04 00:14:12;;;;;;;3.87;1.80;;;;;;;;;;5091790;28;20770;-47
2022/09/04 00:16:41;;;;;;;6.10;1.83;;;;;;;;;;5091543;28;20223;-47
2022/09/04 00:19:09;;;;;;;2.57;1.90;;;;;;;;;;5089484;28;20191;-47
2022/09/04 00:21:39;;;;;;;2.97;2.00;;;;;;;;;;5091309;28;20194;-47
2022/09/04 00:24:08;;;;;;;2.40;2.17;;;;;;;;;;5091619;28;20209;-47
2022/09/04 00:26:42;;;;;;;2.97;1.97;;;;;;;;;;5091548;28;20726;-47
2022/09/04 00:29:10;;;;;;;2.07;1.70;;;;;;;;;;5091533;28;20203;-47
2022/09/04 00:31:40;;;;;;;4.30;1.80;;;;;;;;;;5091328;28;20195;-47
2022/09/04 00:34:12;;;;;;;2.00;1.80;;;;;;;;;;5091614;28;20627;-47
2022/09/04 00:36:40;;;;;;;2.07;1.80;;;;;;;;;;5091374;28;20217;-46
2022/09/04 00:39:09;;;;;;;4.70;2.13;;;;;;;;;;5091309;28;20201;-47
2022/09/04 00:41:42;;;;;;;1.90;1.80;;;;;;;;;;5090820;28;20241;-47
2022/09/04 00:44:31;;;;;;;2.97;2.03;;;;;;;;;;5090678;28;20202;-46
2022/09/04 00:47:06;;;;;;;2.00;1.80;;;;;;;;;;5090375;28;20750;-47
2022/09/04 00:49:39;;;;;;;3.07;1.80;;;;;;;;;;5091235;28;20226;-46
2022/09/04 00:52:10;;;;;;;2.00;1.80;;;;;;;;;;5091176;28;20198;-45
2022/09/04 00:54:53;;;;;;;2.17;1.80;;;;;;;;;;5091308;28;20194;-45
2022/09/04 00:57:38;;;;;;;2.00;1.57;;;;;;;;;;5091246;28;20203;-46
2022/09/04 01:00:10;;;;;;;3.23;2.03;;;;;;;;;;5091264;28;20241;-45
2022/09/04 01:02:44;;;;;;;3.57;2.00;;;;;;;;;;5091580;28;20194;-46
2022/09/04 01:05:15;;;;;;;3.97;2.00;;;;;;;;;;5091238;28;20219;-46
2022/09/04 01:07:44;;;;;;;2.40;1.70;;;;;;;;;;5091030;28;20238;-46
2022/09/04 01:10:26;;;;;;;2.10;1.97;;;;;;;;;;5091034;28;20259;-46
2022/09/04 01:12:56;;;;;;;2.50;2.20;;;;;;;;;;5090878;28;20210;-46
2022/09/04 01:15:29;;;;;;;2.63;1.87;;;;;;;;;;5091048;28;20191;-46
2022/09/04 01:17:59;;;;;;;3.97;1.87;;;;;;;;;;5091182;28;20252;-46
2022/09/04 01:20:31;;;;;;;3.63;2.00;;;;;;;;;;5090858;28;20199;-46
2022/09/04 01:23:05;;;;;;;3.80;2.00;;;;;;;;;;5090993;28;20278;-46
2022/09/04 01:25:34;;;;;;;4.37;1.97;;;;;;;;;;5090690;28;20318;-46
2022/09/04 01:28:04;;;;;;;2.53;2.00;;;;;;;;;;5091163;28;20199;-46
2022/09/04 01:30:34;;;;;;;2.30;1.80;;;;;;;;;;5092575;28;20230;-46
2022/09/04 01:33:05;;;;;;;2.07;1.87;;;;;;;;;;5094751;28;20202;-46
2022/09/04 01:35:33;;;;;;;1.83;1.50;;;;;;;;;;5094573;28;20715;-46
2022/09/04 01:38:02;;;;;;;2.10;1.90;;;;;;;;;;5094676;28;20199;-46
2022/09/04 01:40:33;;;;;;;1.97;1.80;;;;;;;;;;5094540;28;20249;-46
2022/09/04 01:43:02;;;;;;;2.70;1.87;;;;;;;;;;5094758;28;20195;-46
2022/09/04 01:45:36;;;;;;;2.67;2.03;;;;;;;;;;5094718;28;20227;-47
2022/09/04 01:48:06;;;;;;;2.50;1.80;;;;;;;;;;5094250;28;20277;-46
2022/09/04 01:50:33;;;;;;;4.80;2.10;;;;;;;;;;5094488;28;20199;-46
2022/09/04 01:53:02;;;;;;;1.90;1.70;;;;;;;;;;5094164;28;20286;-47
2022/09/04 01:55:33;;;;;;;2.00;1.80;;;;;;;;;;5094074;28;20203;-47
2022/09/04 01:58:08;;;;;;;6.13;2.07;;;;;;;;;;5094350;28;20203;-46
2022/09/04 02:00:39;;;;;;;1.80;1.60;;;;;;;;;;5094306;28;20198;-47
2022/09/04 02:03:12;;;;;;;2.03;1.87;;;;;;;;;;5094444;28;20286;-47
2022/09/04 02:05:47;;;;;;;2.57;1.70;;;;;;;;;;5094219;28;20237;-47
2022/09/04 02:08:21;;;;;;;8.83;2.40;;;;;;;;;;5094116;28;20261;-47
2022/09/04 02:10:50;;;;;;;3.27;2.10;;;;;;;;;;5093879;28;20202;-47
2022/09/04 02:13:21;;;;;;;3.53;1.90;;;;;;;;;;5093999;28;20775;-46
2022/09/04 02:15:55;;;;;;;3.03;2.10;;;;;;;;;;5094137;28;20199;-46
2022/09/04 02:18:30;;;;;;;2.47;2.00;;;;;;;;;;5093869;28;20207;-47
2022/09/04 02:20:58;;;;;;;2.63;1.67;;;;;;;;;;5094216;28;20809;-46
2022/09/04 02:23:34;;;;;;;6.70;2.10;;;;;;;;;;5093799;28;20217;-46
2022/09/04 02:26:03;;;;;;;6.03;2.23;;;;;;;;;;5093571;28;20227;-47
2022/09/04 02:28:32;;;;;;;2.80;1.67;;;;;;;;;;5093560;28;20720;-46
2022/09/04 02:31:04;;;;;;;2.27;1.87;;;;;;;;;;5093774;28;20194;-46
2022/09/04 02:33:35;;;;;;;3.40;2.00;;;;;;;;;;5093585;28;20203;-46
2022/09/04 02:36:05;;;;;;;2.43;1.90;;;;;;;;;;5093568;28;20195;-46
2022/09/04 02:38:36;;;;;;;2.60;1.90;;;;;;;;;;5093553;28;20293;-47
2022/09/04 02:41:05;;;;;;;3.73;2.03;;;;;;;;;;5093405;28;20191;-46
2022/09/04 02:43:38;;;;;;;3.33;2.03;;;;;;;;;;5092577;28;20252;-46
2022/09/04 02:46:09;;;;;;;3.03;1.97;;;;;;;;;;5092846;28;20223;-47
2022/09/04 02:48:43;;;;;;;2.83;1.97;;;;;;;;;;5093572;28;20203;-46
2022/09/04 02:51:16;;;;;;;4.50;2.00;;;;;;;;;;5092792;28;20216;-47
2022/09/04 02:53:46;;;;;;;2.27;2.03;;;;;;;;;;5093384;28;20236;-46
2022/09/04 02:56:20;;;;;;;4.47;2.20;;;;;;;;;;5092906;28;20244;-46
2022/09/04 02:58:50;;;;;;;3.03;2.00;;;;;;;;;;5093323;28;20290;-46
2022/09/04 03:01:21;;;;;;;2.93;1.70;;;;;;;;;;5093292;28;20536;-46
2022/09/04 03:03:51;;;;;;;2.10;1.90;;;;;;;;;;5093138;28;20202;-47
2022/09/04 03:06:21;;;;;;;4.37;2.13;;;;;;;;;;5092842;28;20684;-47
2022/09/04 03:08:51;;;;;;;3.50;2.27;;;;;;;;;;5093210;28;20203;-47
2022/09/04 03:11:20;;;;;;;3.67;2.20;;;;;;;;;;5092734;28;20202;-47
2022/09/04 03:13:49;;;;;;;2.07;1.80;;;;;;;;;;5092958;28;20282;-47
2022/09/04 03:16:17;;;;;;;2.60;1.90;;;;;;;;;;5092977;28;20692;-47
2022/09/04 03:18:54;;;;;;;5.13;2.10;;;;;;;;;;5092993;28;20195;-46
2022/09/04 03:21:23;;;;;;;2.63;1.83;;;;;;;;;;5092700;28;20612;-47
2022/09/04 03:23:51;;;;;;;3.90;2.00;;;;;;;;;;5092691;28;20531;-46
2022/09/04 03:26:22;;;;;;;2.40;2.00;;;;;;;;;;5092475;28;20225;-46
2022/09/04 03:28:53;;;;;;;4.20;2.10;;;;;;;;;;5092933;28;20203;-47
2022/09/04 03:31:25;;;;;;;3.87;2.00;;;;;;;;;;5092558;28;20228;-46
2022/09/04 03:33:55;;;;;;;3.10;2.00;;;;;;;;;;5092645;28;20269;-46
2022/09/04 03:36:26;;;;;;;2.37;2.03;;;;;;;;;;5092104;28;20583;-46
2022/09/04 03:38:56;;;;;;;3.00;2.00;;;;;;;;;;5092391;28;20225;-46
2022/09/04 03:41:29;;;;;;;2.20;2.00;;;;;;;;;;5092420;28;20209;-45
2022/09/04 03:44:11;;;;;;;2.60;2.20;;;;;;;;;;5092569;28;20244;-46
2022/09/04 03:46:45;;;;;;;2.60;2.40;;;;;;;;;;5092364;28;20271;-47
2022/09/04 03:49:18;;;;;;;2.33;2.07;;;;;;;;;;5092157;28;20248;-47
2022/09/04 03:51:50;;;;;;;2.53;1.90;;;;;;;;;;5092104;28;20294;-47
2022/09/04 03:54:24;;;;;;;2.63;2.00;;;;;;;;;;5092204;28;20286;-46
2022/09/04 03:56:58;;;;;;;4.90;2.33;;;;;;;;;;5092195;28;20251;-46
2022/09/04 03:59:33;;;;;;;5.33;2.10;;;;;;;;;;5091829;28;20202;-46
2022/09/04 04:02:05;;;;;;;3.70;2.20;;;;;;;;;;5091605;28;20202;-47
2022/09/04 04:04:42;;;;;;;2.50;1.90;;;;;;;;;;5091954;28;20256;-47
2022/09/04 04:07:15;;;;;;;4.80;2.40;;;;;;;;;;5091677;28;20259;-47
2022/09/04 04:09:47;;;;;;;2.43;2.03;;;;;;;;;;5091844;28;20190;-47
2022/09/04 04:12:24;;;;;;;2.57;1.83;;;;;;;;;;5091639;28;20656;-45
2022/09/04 04:14:58;;;;;;;3.07;2.10;;;;;;;;;;5092019;28;20191;-45
2022/09/04 04:17:31;;;;;;;3.57;2.10;;;;;;;;;;5091843;28;20199;-46
2022/09/04 04:20:13;;;;;;;4.37;2.20;;;;;;;;;;5091834;28;20222;-46
2022/09/04 04:22:47;;;;;;;4.33;2.37;;;;;;;;;;5091760;28;20286;-46
2022/09/04 04:25:17;;;;;;;2.50;2.10;;;;;;;;;;5091543;28;20222;-46
2022/09/04 04:27:52;;;;;;;3.07;2.07;;;;;;;;;;5091608;28;20248;-45
2022/09/04 04:30:18;;;;;;;2.70;2.00;;;;;;;;;;5091657;28;20232;-46
2022/09/04 04:32:50;;;;;;;3.23;1.97;;;;;;;;;;5091482;28;20202;-46
2022/09/04 04:35:21;;;;;;;2.53;2.20;;;;;;;;;;5091110;28;20201;-46
2022/09/04 04:37:55;;;;;;;4.10;2.30;;;;;;;;;;5091589;28;20203;-47
2022/09/04 04:40:26;;;;;;;2.83;2.50;;;;;;;;;;5091196;28;20657;-47
2022/09/04 04:42:56;;;;;;;2.30;2.10;;;;;;;;;;5090846;28;20807;-47
2022/09/04 04:48:27;;;;;;;3.97;2.07;;;;;;;;;;5090044;28;20673;-46
2022/09/04 04:51:04;;;;;;;2.20;2.00;;;;;;;;;;5091141;28;20205;-47
2022/09/04 04:53:31;;;;;;;4.10;2.07;;;;;;;;;;5090608;28;20203;-47
2022/09/04 04:55:59;;;;;;;4.17;2.23;;;;;;;;;;5091048;28;20194;-47
2022/09/04 04:58:40;;;;;;;3.37;2.30;;;;;;;;;;5091173;28;20215;-46
2022/09/04 05:01:11;;;;;;;5.37;2.13;;;;;;;;;;5089562;28;20207;-47
2022/09/04 05:03:47;;;;;;;3.37;2.20;;;;;;;;;;5090225;28;20202;-46
2022/09/04 05:06:18;;;;;;;2.73;2.53;;;;;;;;;;5093398;28;20303;-47
2022/09/04 05:08:47;;;;;;;2.63;2.30;;;;;;;;;;5095158;28;20656;-46
2022/09/04 05:11:16;;;;;;;2.47;2.20;;;;;;;;;;5095160;28;20202;-47
2022/09/04 05:13:48;;;;;;;3.30;2.47;;;;;;;;;;5095124;28;20645;-47
2022/09/04 05:16:17;;;;;;;3.47;1.97;;;;;;;;;;5095046;28;20214;-46
2022/09/04 05:18:47;;;;;;;3.40;2.27;;;;;;;;;;5095153;28;20205;-46
2022/09/04 05:21:17;;;;;;;3.23;2.30;;;;;;;;;;5094180;28;20198;-46
2022/09/04 05:23:49;;;;;;;3.43;2.17;;;;;;;;;;5094120;28;20717;-46
2022/09/04 05:26:20;;;;;;;3.73;2.30;;;;;;;;;;5093990;28;20272;-46
2022/09/04 05:28:52;;;;;;;4.10;2.33;;;;;;;;;;5094820;28;20611;-47
2022/09/04 05:31:21;;;;;;;2.97;2.23;;;;;;;;;;5094754;28;20617;-46
2022/09/04 05:33:51;;;;;;;2.93;2.30;;;;;;;;;;5094651;28;20206;-46
2022/09/04 05:36:23;;;;;;;5.60;2.60;;;;;;;;;;5094585;28;20203;-46
2022/09/04 05:38:56;;;;;;;4.77;2.27;;;;;;;;;;5094724;28;20242;-47
2022/09/04 05:41:32;;;;;;;2.70;2.23;;;;;;;;;;5094790;28;20202;-46
2022/09/04 05:44:09;;;;;;;2.93;2.10;;;;;;;;;;5094843;28;20201;-46
2022/09/04 05:46:41;;;;;;;2.70;2.40;;;;;;;;;;5094535;28;20226;-46
2022/09/04 05:49:13;;;;;;;4.30;2.40;;;;;;;;;;5094663;28;20195;-46
2022/09/04 05:51:50;;;;;;;5.70;2.20;;;;;;;;;;5094394;28;20259;-46
2022/09/04 05:54:24;;;;;;;3.17;2.57;;;;;;;;;;5094484;28;20213;-46
2022/09/04 05:56:57;;;;;;;4.07;2.50;;;;;;;;;;5094386;28;20187;-46
2022/09/04 05:59:30;;;;;;;3.53;2.20;;;;;;;;;;5094369;28;20195;-46
2022/09/04 06:02:00;;;;;;;7.10;2.67;;;;;;;;;;5094351;28;20695;-46
2022/09/04 06:04:41;;;;;;;3.73;2.27;;;;;;;;;;5092917;28;20275;-45
2022/09/04 06:07:12;;;;;;;4.37;2.40;;;;;;;;;;5093525;28;20238;-46
2022/09/04 06:09:54;;;;;;;4.00;2.67;;;;;;;;;;5092977;28;20207;-46
2022/09/04 06:12:27;;;;;;;3.83;2.40;;;;;;;;;;5093686;28;20206;-46
2022/09/04 06:15:01;;;;;;;3.23;2.70;;;;;;;;;;5093990;28;20471;-46
2022/09/04 06:17:32;;;;;;;2.83;2.40;;;;;;;;;;5092550;28;20199;-46
2022/09/04 06:20:19;;;;;;;2.50;2.27;;;;;;;;;;5093886;28;20294;-46
2022/09/04 06:22:54;;;;;;;3.87;2.67;;;;;;;;;;5090181;28;20197;-46
2022/09/04 06:25:29;;;;;;;2.57;2.33;;;;;;;;;;5093586;28;20218;-46
2022/09/04 06:28:03;;;;;;;3.50;2.43;;;;;;;;;;5092872;28;20229;-47
2022/09/04 06:30:34;;;;;;;3.00;2.60;;;;;;;;;;5093466;28;20598;-47
2022/09/04 06:33:05;;;;;;;4.20;2.37;;;;;;;;;;5093727;28;20206;-47
2022/09/04 06:35:36;;;;;;;3.93;2.47;;;;;;;;;;5093522;28;20199;-47
2022/09/04 06:38:10;;;;;;;2.50;2.10;;;;;;;;;;5092771;28;20199;-48
2022/09/04 06:40:42;;;;;;;2.40;2.20;;;;;;;;;;5092798;28;20233;-45
2022/09/04 06:43:14;;;;;;;2.87;2.40;;;;;;;;;;5093280;28;20232;-48
2022/09/04 06:45:47;;;;;;;4.03;2.40;;;;;;;;;;5093407;28;20231;-45
2022/09/04 06:48:18;;;;;;;2.87;2.40;;;;;;;;;;5093079;28;20790;-46
2022/09/04 06:50:49;;;;;;;3.87;3.00;;;;;;;;;;5092971;28;20668;-46
2022/09/04 06:53:26;;;;;;;4.67;2.63;;;;;;;;;;5092339;28;20263;-47
2022/09/04 06:55:57;;;;;;;4.07;2.40;;;;;;;;;;5092315;28;20206;-47
2022/09/04 06:58:42;;;;;;;3.83;2.63;;;;;;;;;;5092416;28;20293;-47
2022/09/04 07:01:10;;;;;;;3.07;2.77;;;;;;;;;;5093096;28;20200;-47
2022/09/04 07:03:44;;;;;;;3.20;2.30;;;;;;;;;;5092759;28;20203;-46
2022/09/04 07:06:14;;;;;;;2.37;2.17;;;;;;;;;;5092987;28;20221;-46
2022/09/04 07:08:48;;;;;;;4.17;2.40;;;;;;;;;;5092625;28;20235;-47
2022/09/04 07:11:19;;;;;;;4.20;2.53;;;;;;;;;;5092892;28;20210;-46
2022/09/04 07:14:00;;;;;;;4.37;2.70;;;;;;;;;;5093075;28;20256;-48
2022/09/04 07:16:33;;;;;;;3.73;2.70;;;;;;;;;;5090919;28;20290;-48
2022/09/04 07:19:14;;;;;;;3.90;3.00;;;;;;;;;;5092931;28;20243;-48
2022/09/04 07:21:44;;;;;;;5.80;2.70;;;;;;;;;;5083571;28;20199;-47
2022/09/04 07:24:32;;;;;;;5.13;3.13;;;;;;;;;;5092491;28;20622;-48
2022/09/04 07:27:01;;;;;;;3.93;2.70;;;;;;;;;;5092188;28;20227;-47
2022/09/04 07:29:31;;;;;;;5.17;2.80;;;;;;;;;;5091841;28;20253;-47
2022/09/04 07:32:00;;;;;;;4.33;2.87;;;;;;;;;;5092283;28;20250;-47
2022/09/04 07:34:31;;;;;;;2.97;2.60;;;;;;;;;;5091522;28;20204;-46
2022/09/04 07:37:00;;;;;;;3.43;2.63;;;;;;;;;;5092533;28;20203;-47
2022/09/04 07:39:35;;;;;;;7.10;2.70;;;;;;;;;;5092170;28;20209;-47
2022/09/04 07:42:06;;;;;;;4.27;2.87;;;;;;;;;;5090634;28;20635;-47
2022/09/04 07:44:34;;;;;;;3.87;2.97;;;;;;;;;;5091532;28;20626;-47
2022/09/04 07:47:12;;;;;;;5.00;2.87;;;;;;;;;;5092497;28;20275;-47
2022/09/04 07:49:42;;;;;;;4.37;3.10;;;;;;;;;;5092603;28;20209;-47
2022/09/04 07:52:13;;;;;;;3.53;2.90;;;;;;;;;;5092507;28;20193;-47
2022/09/04 07:54:46;;;;;;;5.20;3.00;;;;;;;;;;5092360;28;20201;-47
2022/09/04 07:57:27;;;;;;;3.63;2.57;;;;;;;;;;5092488;28;20282;-47
2022/09/04 08:00:07;;;;;;;3.10;2.50;;;;;;;;;;5083604;28;20206;-47
2022/09/04 08:02:38;;;;;;;3.07;2.57;;;;;;;;;;5092358;28;20229;-47
2022/09/04 08:05:11;;;;;;;3.63;2.50;;;;;;;;;;5092312;28;20240;-47
2022/09/04 08:07:57;;;;;;;5.03;3.30;;;;;;;;;;5091966;28;20242;-47
2022/09/04 08:10:30;;;;;;;3.97;2.87;;;;;;;;;;5092178;28;20203;-47
2022/09/04 08:13:04;;;;;;;6.43;2.93;;;;;;;;;;5092372;28;20235;-48
2022/09/04 08:15:35;;;;;;;4.83;2.80;;;;;;;;;;5092074;28;20198;-47
2022/09/04 08:18:20;;;;;;;9.10;2.87;;;;;;;;;;5092282;28;20195;-47
2022/09/04 08:20:51;;;;;;;6.27;2.73;;;;;;;;;;5092071;28;20210;-46
2022/09/04 08:23:23;;;;;;;3.83;2.97;;;;;;;;;;5091999;28;20199;-47
2022/09/04 08:25:54;;;;;;;5.17;2.60;;;;;;;;;;5091994;28;20230;-47
2022/09/04 08:28:32;;;;;;;4.80;3.00;;;;;;;;;;5091799;28;20248;-47
2022/09/04 08:31:04;;;;;;;4.93;2.63;;;;;;;;;;5091929;28;20575;-47
2022/09/04 08:33:40;;;;;;;3.90;2.60;;;;;;;;;;5091871;28;20202;-48
2022/09/04 08:36:09;;;;;;;4.13;2.70;;;;;;;;;;5091818;28;20669;-47
2022/09/04 08:38:47;;;;;;;3.00;2.70;;;;;;;;;;5091644;28;20199;-46
2022/09/04 08:41:37;;;;;;;3.00;2.70;;;;;;;;;;5091140;28;20191;-47
2022/09/04 08:44:18;;;;;;;4.67;2.90;;;;;;;;;;5091836;28;20195;-47
2022/09/04 08:46:54;;;;;;;3.40;2.70;;;;;;;;;;5082701;28;20245;-47
2022/09/04 08:49:40;;;;;;;4.20;2.90;;;;;;;;;;5091773;28;20286;-47
2022/09/04 08:52:17;;;;;;;6.43;3.10;;;;;;;;;;5091775;28;20447;-47
2022/09/04 08:55:00;;;;;;;4.10;2.60;;;;;;;;;;5091408;28;20202;-47
2022/09/04 08:57:42;;;;;;;7.57;3.07;;;;;;;;;;5091589;28;20315;-47
2022/09/04 09:00:10;;;;;;;3.77;2.77;;;;;;;;;;5091387;28;20218;-46
2022/09/04 09:02:54;;;;;;;4.30;3.07;;;;;;;;;;5091380;28;20650;-47
2022/09/04 09:05:41;;;;;;;6.40;3.00;;;;;;;;;;5091353;28;20216;-47
2022/09/04 09:08:23;;;;;;;6.60;2.77;;;;;;;;;;5091389;28;20245;-47
2022/09/04 09:11:02;;;;;;;5.90;3.07;;;;;;;;;;5091649;28;20290;-47
2022/09/04 09:13:39;;;;;;;5.70;3.10;;;;;;;;;;5091590;28;20330;-47
2022/09/04 09:16:21;;;;;;;5.43;2.80;;;;;;;;;;5091533;28;20284;-47
2022/09/04 09:19:06;;;;;;;3.10;2.80;;;;;;;;;;5091473;28;20201;-47
2022/09/04 09:21:40;;;;;;;4.93;2.90;;;;;;;;;;5091328;28;20680;-47
2022/09/04 09:24:17;;;;;;;5.43;3.00;;;;;;;;;;5091394;28;20199;-47
2022/09/04 09:26:54;;;;;;;3.90;3.07;;;;;;;;;;5091496;28;20586;-47
2022/09/04 09:29:35;;;;;;;2.83;2.53;;;;;;;;;;5091429;28;20201;-47
2022/09/04 09:32:31;;;;;;;4.20;2.90;;;;;;;;;;5091194;28;20603;-47
2022/09/04 09:35:11;;;;;;;3.47;2.90;;;;;;;;;;5090502;28;20732;-47
2022/09/04 09:38:00;;;;;;;9.70;3.23;;;;;;;;;;5089849;28;20226;-47
2022/09/04 09:40:50;;;;;;;5.03;2.80;;;;;;;;;;5090151;28;20286;-47
2022/09/04 09:43:40;;;;;;;4.87;2.90;;;;;;;;;;5090654;28;20210;-47
2022/09/04 09:46:25;;;;;;;3.43;2.70;;;;;;;;;;5090794;28;20223;-47
2022/09/04 09:49:12;;;;;;;4.20;2.60;;;;;;;;;;5090424;28;20178;-47
2022/09/04 09:51:55;;;;;;;6.90;3.00;;;;;;;;;;5092322;28;20274;-47
2022/09/04 09:54:40;;;;;;;3.00;2.70;;;;;;;;;;5093325;28;20274;-47
2022/09/04 09:57:30;;;;;;;5.53;2.73;;;;;;;;;;5093417;28;20206;-47
2022/09/04 10:00:06;;;;;;;4.37;2.50;;;;;;;;;;5083544;28;20199;-47
2022/09/04 10:02:45;;;;;;;4.70;3.00;;;;;;;;;;5094081;28;20198;-48
2022/09/04 10:05:29;;;;;;;3.57;2.70;;;;;;;;;;5094415;28;20228;-48
2022/09/04 10:08:09;;;;;;;5.20;3.10;;;;;;;;;;5072783;28;20252;-49
2022/09/04 10:10:45;;;;;;;3.03;2.60;;;;;;;;;;5094199;28;20253;-48
2022/09/04 10:13:33;;;;;;;2.93;2.40;;;;;;;;;;5093910;28;20302;-48
2022/09/04 10:16:18;;;;;;;3.67;2.67;;;;;;;;;;5093930;28;20188;-48
2022/09/04 10:18:59;;;;;;;3.80;2.87;;;;;;;;;;5092790;28;20219;-48
2022/09/04 10:21:40;;;;;;;6.03;2.50;;;;;;;;;;5093088;28;20195;-47
2022/09/04 10:24:28;;;;;;;3.33;2.53;;;;;;;;;;5093969;28;20196;-48
2022/09/04 10:27:09;;;;;;;3.17;2.63;;;;;;;;;;5093962;28;20237;-48
2022/09/04 10:29:43;;;;;;;5.60;2.47;;;;;;;;;;5094001;28;20201;-48
2022/09/04 10:32:35;;;;;;;3.70;2.40;;;;;;;;;;5093806;28;20609;-48
2022/09/04 10:35:08;;;;;;;3.97;2.33;;;;;;;;;;5093728;28;20659;-49
2022/09/04 10:37:42;;;;;;;3.67;2.53;;;;;;;;;;5093860;28;20201;-49
2022/09/04 10:43:11;;;;;;;2.80;2.37;;;;;;;;;;5093553;28;20197;-47
2022/09/04 10:45:40;;;;;;;3.70;2.17;;;;;;;;;;5093493;28;20561;-47
2022/09/04 10:48:29;;;;;;;3.60;2.47;;;;;;;;;;5093277;28;20195;-47
2022/09/04 10:51:01;;;;;;;3.57;2.40;;;;;;;;;;5093099;28;20198;-47
2022/09/04 10:53:40;;;;;;;7.03;2.53;;;;;;;;;;5093327;28;20199;-47
2022/09/04 10:56:16;;;;;;;3.30;2.60;;;;;;;;;;5093322;28;20225;-47
2022/09/04 10:59:08;;;;;;;3.20;2.30;;;;;;;;;;5093216;28;20195;-48
2022/09/04 11:01:54;;;;;;;4.03;2.23;;;;;;;;;;5093203;28;20212;-48
2022/09/04 11:04:44;;;;;;;6.30;2.80;;;;;;;;;;5092596;28;20191;-49
2022/09/04 11:07:23;;;;;;;2.23;2.03;;;;;;;;;;5092864;28;20235;-48
2022/09/04 11:09:56;;;;;;;3.07;2.30;;;;;;;;;;5092965;28;20271;-48
2022/09/04 11:12:39;;;;;;;5.47;2.40;;;;;;;;;;5092727;28;20645;-48
2022/09/04 11:15:15;;;;;;;2.80;2.20;;;;;;;;;;5093072;28;20255;-48
2022/09/04 11:17:59;;;;;;;5.03;2.60;;;;;;;;;;5092918;28;20401;-48
2022/09/04 11:20:44;;;;;;;4.37;2.13;;;;;;;;;;5092699;28;20208;-49
2022/09/04 11:23:29;;;;;;;3.83;2.53;;;;;;;;;;5092783;28;20197;-49
2022/09/04 11:26:05;;;;;;;4.23;2.17;;;;;;;;;;5091961;28;20457;-47
2022/09/04 11:28:54;;;;;;;3.83;2.20;;;;;;;;;;5092739;28;20249;-48
2022/09/04 11:31:30;;;;;;;3.20;2.23;;;;;;;;;;5092863;28;20284;-48
2022/09/04 11:34:18;;;;;;;3.03;2.20;;;;;;;;;;5092638;28;20205;-48
2022/09/04 11:37:00;;;;;;;2.43;2.03;;;;;;;;;;5092566;28;20196;-48
2022/09/04 11:39:35;;;;;;;4.20;2.53;;;;;;;;;;5092610;28;20263;-49
2022/09/04 11:42:09;;;;;;;7.37;2.43;;;;;;;;;;5092189;28;20208;-48
2022/09/04 11:44:47;;;;;;;3.57;2.17;;;;;;;;;;5092357;28;20284;-48
2022/09/04 11:47:33;;;;;;;4.13;2.50;;;;;;;;;;5091410;28;20230;-48
2022/09/04 11:50:15;;;;;;;6.60;3.33;;;;;;;;;;5092497;28;20363;-47
2022/09/04 11:52:52;;;;;;;3.97;3.03;;;;;;;;;;5092085;28;20241;-47
2022/09/04 11:55:25;;;;;;;4.17;2.60;;;;;;;;;;5091199;28;20290;-48
2022/09/04 11:58:21;;;;;;;3.03;2.07;;;;;;;;;;5091169;28;20609;-48
2022/09/04 12:00:57;;;;;;;5.70;3.27;;;;;;;;;;5048527;28;20219;-47
2022/09/04 12:03:37;;;;;;;4.47;2.87;;;;;;;;;;5084340;28;20706;-49
2022/09/04 12:06:10;;;;;;;4.97;2.33;;;;;;;;;;5091409;28;20240;-47
2022/09/04 12:08:49;;;;;;;4.50;2.10;;;;;;;;;;5091445;28;20232;-47
2022/09/04 12:11:37;;;;;;;3.17;2.30;;;;;;;;;;5091643;28;20208;-48
2022/09/04 12:14:14;;;;;;;3.63;2.30;;;;;;;;;;5091304;28;20207;-47
2022/09/04 12:17:14;;;;;;;2.50;2.17;;;;;;;;;;5090633;28;20273;-48
2022/09/04 12:19:55;;;;;;;3.40;2.40;;;;;;;;;;5048805;28;20214;-48
2022/09/04 12:22:39;;;;;;;3.40;2.20;;;;;;;;;;5049213;28;20210;-48
2022/09/04 12:25:18;;;;;;;2.10;1.90;;;;;;;;;;5077615;28;20219;-48
2022/09/04 12:28:03;;;;;;;3.50;2.47;;;;;;;;;;5091363;28;20235;-48
2022/09/04 12:30:34;;;;;;;4.30;2.33;;;;;;;;;;5091584;28;20225;-48
2022/09/04 12:33:10;;;;;;;3.03;2.20;;;;;;;;;;5090620;28;20205;-48
2022/09/04 12:35:55;;;;;;;2.70;2.40;;;;;;;;;;5089262;28;20290;-48
2022/09/04 12:38:33;;;;;;;5.60;2.23;;;;;;;;;;5091780;28;20201;-47
2022/09/04 12:41:04;;;;;;;2.43;2.23;;;;;;;;;;5091880;28;20204;-48
2022/09/04 12:43:39;;;;;;;2.40;2.00;;;;;;;;;;5091727;28;20205;-47
2022/09/04 12:46:13;;;;;;;5.67;2.03;;;;;;;;;;5091815;28;20599;-47
2022/09/04 12:48:44;;;;;;;3.03;2.10;;;;;;;;;;5091666;28;20919;-48
2022/09/04 12:51:12;;;;;;;5.07;2.30;;;;;;;;;;5091717;28;20218;-47
2022/09/04 12:53:44;;;;;;;4.00;2.40;;;;;;;;;;5091488;28;20195;-47
2022/09/04 12:56:15;;;;;;;3.60;2.00;;;;;;;;;;5091752;28;20186;-48
2022/09/04 12:58:51;;;;;;;2.80;2.10;;;;;;;;;;5091574;28;20202;-47
2022/09/04 13:01:21;;;;;;;2.30;1.80;;;;;;;;;;5091857;28;20270;-48
2022/09/04 13:03:54;;;;;;;2.70;2.00;;;;;;;;;;5091540;28;20629;-48
2022/09/04 13:06:26;;;;;;;2.47;2.20;;;;;;;;;;5091470;28;20348;-48
2022/09/04 13:08:57;;;;;;;5.03;2.30;;;;;;;;;;5091807;28;20208;-47
2022/09/04 13:11:31;;;;;;;2.53;2.00;;;;;;;;;;5091846;28;20201;-48
2022/09/04 13:14:06;;;;;;;4.10;2.37;;;;;;;;;;5091590;28;20204;-48
2022/09/04 13:16:35;;;;;;;2.43;2.10;;;;;;;;;;5091552;28;20284;-48
2022/09/04 13:19:07;;;;;;;2.37;1.90;;;;;;;;;;5091615;28;20215;-48
2022/09/04 13:21:43;;;;;;;3.10;2.40;;;;;;;;;;5091472;28;20289;-47
2022/09/04 13:24:18;;;;;;;4.73;2.10;;;;;;;;;;5091510;28;20200;-46
2022/09/04 13:26:53;;;;;;;2.73;2.10;;;;;;;;;;5093266;28;20765;-47
2022/09/04 13:29:26;;;;;;;4.00;2.50;;;;;;;;;;5095265;28;20200;-47
2022/09/04 13:32:07;;;;;;;3.73;2.20;;;;;;;;;;5095390;28;20446;-47
2022/09/04 13:34:42;;;;;;;3.03;2.17;;;;;;;;;;5095234;28;20192;-47
2022/09/04 13:37:12;;;;;;;2.77;1.90;;;;;;;;;;5095329;28;20277;-48
2022/09/04 13:39:59;;;;;;;2.73;1.90;;;;;;;;;;5095035;28;20559;-48
2022/09/04 13:42:36;;;;;;;3.63;2.33;;;;;;;;;;5095044;28;20275;-48
2022/09/04 13:45:05;;;;;;;3.70;2.10;;;;;;;;;;5095224;28;20200;-48
2022/09/04 13:47:36;;;;;;;5.00;2.33;;;;;;;;;;5094718;28;20311;-48
2022/09/04 13:50:08;;;;;;;3.80;2.30;;;;;;;;;;5094918;28;20200;-49
2022/09/04 13:52:37;;;;;;;3.70;2.20;;;;;;;;;;5094829;28;20206;-48
2022/09/04 13:55:05;;;;;;;2.40;2.20;;;;;;;;;;5094918;28;20234;-48
2022/09/04 13:57:35;;;;;;;3.00;2.30;;;;;;;;;;5094684;28;20201;-48
2022/09/04 14:00:04;;;;;;;6.87;2.30;;;;;;;;;;5094800;28;20197;-48
2022/09/04 14:02:30;;;;;;;4.33;2.17;;;;;;;;;;5094607;28;20226;-49
2022/09/04 14:05:01;;;;;;;6.93;2.07;;;;;;;;;;5094636;28;20197;-48
2022/09/04 14:07:30;;;;;;;5.00;2.37;;;;;;;;;;5094201;28;20242;-49
2022/09/04 14:09:59;;;;;;;2.40;2.20;;;;;;;;;;5094444;28;20215;-48
2022/09/04 14:12:31;;;;;;;2.63;2.07;;;;;;;;;;5094390;28;20197;-48
2022/09/04 14:15:18;;;;;;;4.03;2.27;;;;;;;;;;5094560;28;20221;-49
2022/09/04 14:17:49;;;;;;;3.87;2.27;;;;;;;;;;5094358;28;20201;-49
2022/09/04 14:20:18;;;;;;;3.57;2.20;;;;;;;;;;5094395;28;20202;-48
2022/09/04 14:22:48;;;;;;;3.70;2.90;;;;;;;;;;5094152;28;20318;-48
2022/09/04 14:25:18;;;;;;;2.77;2.37;;;;;;;;;;5094194;28;20648;-48
2022/09/04 14:28:15;;;;;;;2.60;2.30;;;;;;;;;;5094142;28;20201;-48
2022/09/04 14:30:43;;;;;;;3.90;2.27;;;;;;;;;;5094087;28;20205;-48
2022/09/04 14:33:19;;;;;;;2.63;2.20;;;;;;;;;;5094049;28;20560;-48
2022/09/04 14:35:54;;;;;;;3.93;2.10;;;;;;;;;;5093903;28;20756;-48
2022/09/04 14:38:41;;;;;;;2.93;2.40;;;;;;;;;;5092941;28;20205;-48
2022/09/04 14:41:15;;;;;;;3.53;2.57;;;;;;;;;;5094003;28;20254;-48
2022/09/04 14:43:44;;;;;;;5.10;4.17;;;;;;;;;;5093953;28;20196;-48
2022/09/04 14:46:14;;;;;;;3.27;2.30;;;;;;;;;;5093730;28;20236;-47
2022/09/04 14:48:45;;;;;;;2.80;2.33;;;;;;;;;;5093877;28;20206;-48
2022/09/04 14:51:14;;;;;;;6.10;2.40;;;;;;;;;;5094017;28;20212;-46
2022/09/04 14:53:45;;;;;;;2.40;2.20;;;;;;;;;;5093499;28;20193;-47
2022/09/04 14:56:16;;;;;;;2.57;2.10;;;;;;;;;;5093707;28;20291;-48
2022/09/04 14:58:45;;;;;;;3.60;2.63;;;;;;;;;;5092372;28;20615;-47
2022/09/04 15:01:20;;;;;;;3.13;2.00;;;;;;;;;;5093643;28;20585;-48
2022/09/04 15:03:51;;;;;;;3.07;2.03;;;;;;;;;;5093363;28;20292;-47
2022/09/04 15:06:20;;;;;;;3.20;2.10;;;;;;;;;;5093262;28;20727;-47
2022/09/04 15:08:48;;;;;;;2.67;2.10;;;;;;;;;;5093211;28;20244;-48
2022/09/04 15:11:26;;;;;;;3.43;2.23;;;;;;;;;;5093356;28;20196;-47
2022/09/04 15:13:53;;;;;;;3.07;2.00;;;;;;;;;;5093293;28;20276;-47
2022/09/04 15:16:21;;;;;;;2.33;2.10;;;;;;;;;;5093246;28;20208;-48
2022/09/04 15:18:55;;;;;;;7.33;2.57;;;;;;;;;;5093278;28;20627;-47
2022/09/04 15:21:25;;;;;;;2.30;2.10;;;;;;;;;;5093152;28;20202;-47
2022/09/04 15:23:53;;;;;;;5.77;2.40;;;;;;;;;;5092945;28;20197;-48
2022/09/04 15:26:23;;;;;;;4.17;2.50;;;;;;;;;;5092972;28;20232;-48
2022/09/04 15:28:51;;;;;;;2.50;2.30;;;;;;;;;;5092818;28;20209;-48
2022/09/04 15:31:20;;;;;;;4.90;2.40;;;;;;;;;;5092947;28;20259;-48
2022/09/04 15:33:47;;;;;;;2.27;2.07;;;;;;;;;;5092644;28;20234;-48